Time;durP1;ratioP1;P1;durP2;ratioP2;P2;SDS_P1;SDS_P2;PMS_P1;PMS_P2;Temp;Humidity;BMP_temperature;BMP_pressure;BME280_temperature;BME280_humidity;BME280_pressure;Samples;Min_cycle;Max_cycle;Signal;HPM_P1;HPM_P2
2021/08/03 00:01:04;;;;;;;4.57;3.28;;;;;;;;;;5096072;28;20036;-63
2021/08/03 00:03:32;;;;;;;3.92;3.63;;;;;;;;;;5096352;28;20456;-63
2021/08/03 00:05:58;;;;;;;4.53;3.05;;;;;;;;;;5095766;28;20447;-63
2021/08/03 00:08:26;;;;;;;3.72;3.42;;;;;;;;;;5078388;28;20059;-62
2021/08/03 00:10:52;;;;;;;4.20;3.20;;;;;;;;;;5096177;28;20085;-62
2021/08/03 00:13:18;;;;;;;4.15;3.13;;;;;;;;;;5096079;28;20427;-62
2021/08/03 00:15:44;;;;;;;3.65;3.20;;;;;;;;;;5095803;28;20028;-62
2021/08/03 00:18:10;;;;;;;5.40;3.40;;;;;;;;;;5077951;28;20066;-62
2021/08/03 00:20:38;;;;;;;2.95;2.65;;;;;;;;;;5095840;28;20051;-62
2021/08/03 00:23:04;;;;;;;4.15;2.92;;;;;;;;;;5095773;28;20035;-62
2021/08/03 00:25:29;;;;;;;3.00;2.72;;;;;;;;;;5096123;28;20020;-62
2021/08/03 00:27:55;;;;;;;2.88;2.67;;;;;;;;;;5077760;28;20044;-63
2021/08/03 00:30:24;;;;;;;5.15;2.90;;;;;;;;;;5095762;28;20036;-63
2021/08/03 00:32:50;;;;;;;2.97;2.78;;;;;;;;;;5077645;28;20079;-62
2021/08/03 00:35:16;;;;;;;3.20;2.92;;;;;;;;;;5077299;28;20123;-62
2021/08/03 00:37:41;;;;;;;6.50;2.80;;;;;;;;;;5077561;28;20123;-62
2021/08/03 00:40:08;;;;;;;4.22;2.72;;;;;;;;;;5077387;28;20483;-62
2021/08/03 00:42:34;;;;;;;6.18;2.70;;;;;;;;;;5077449;28;20037;-62
2021/08/03 00:45:00;;;;;;;3.08;2.55;;;;;;;;;;5077493;28;20024;-62
2021/08/03 00:47:34;;;;;;;4.00;2.38;;;;;;;;;;5095837;28;20036;-62
2021/08/03 00:50:06;;;;;;;5.22;2.45;;;;;;;;;;5077060;28;20032;-63
2021/08/03 00:52:35;;;;;;;2.53;2.33;;;;;;;;;;5077232;28;20040;-63
2021/08/03 00:55:01;;;;;;;3.13;2.90;;;;;;;;;;5095268;28;20530;-63
2021/08/03 00:57:27;;;;;;;2.90;2.47;;;;;;;;;;5095447;28;20054;-64
2021/08/03 00:59:53;;;;;;;3.20;2.38;;;;;;;;;;5095112;28;20381;-64
2021/08/03 01:02:24;;;;;;;3.10;2.78;;;;;;;;;;5077119;28;20395;-64
2021/08/03 01:04:53;;;;;;;2.90;2.67;;;;;;;;;;5094875;28;20487;-64
2021/08/03 01:07:24;;;;;;;2.63;2.47;;;;;;;;;;5095335;28;20052;-64
2021/08/03 01:10:10;;;;;;;3.40;2.50;;;;;;;;;;5076417;28;20039;-64
2021/08/03 01:12:44;;;;;;;2.95;2.75;;;;;;;;;;5076755;28;20036;-64
2021/08/03 01:15:17;;;;;;;4.25;2.85;;;;;;;;;;5060583;28;20039;-63
2021/08/03 01:17:51;;;;;;;3.13;2.83;;;;;;;;;;5076995;28;20024;-63
2021/08/03 01:20:17;;;;;;;3.25;2.95;;;;;;;;;;5094520;28;20399;-63
2021/08/03 01:22:50;;;;;;;3.22;2.97;;;;;;;;;;5094696;28;20024;-63
2021/08/03 01:25:35;;;;;;;3.03;2.72;;;;;;;;;;5076481;28;20389;-63
2021/08/03 01:28:21;;;;;;;4.38;2.72;;;;;;;;;;5076454;28;20143;-63
2021/08/03 01:31:22;;;;;;;3.25;2.60;;;;;;;;;;5059836;28;20047;-63
2021/08/03 01:33:53;;;;;;;3.10;2.88;;;;;;;;;;5015972;28;20080;-63
2021/08/03 01:36:18;;;;;;;2.88;2.67;;;;;;;;;;5084319;28;20044;-62
2021/08/03 01:38:46;;;;;;;4.40;2.78;;;;;;;;;;5076421;28;20068;-63
2021/08/03 01:41:14;;;;;;;2.97;2.78;;;;;;;;;;5094367;28;20048;-63
2021/08/03 01:43:40;;;;;;;3.38;2.88;;;;;;;;;;5076059;28;20551;-63
2021/08/03 01:46:07;;;;;;;4.68;2.88;;;;;;;;;;5076074;28;20028;-62
2021/08/03 01:48:34;;;;;;;3.60;3.13;;;;;;;;;;5076247;28;20488;-63
2021/08/03 01:51:02;;;;;;;3.15;2.80;;;;;;;;;;5076380;28;20502;-62
2021/08/03 01:53:31;;;;;;;6.07;2.90;;;;;;;;;;5076051;28;20039;-63
2021/08/03 01:56:00;;;;;;;3.05;2.85;;;;;;;;;;5075942;28;20040;-64
2021/08/03 01:58:28;;;;;;;4.38;2.92;;;;;;;;;;5094126;28;20032;-64
2021/08/03 02:01:00;;;;;;;3.10;2.80;;;;;;;;;;5075777;28;20059;-64
2021/08/03 02:03:29;;;;;;;3.10;2.90;;;;;;;;;;5076242;28;20480;-64
2021/08/03 02:06:15;;;;;;;3.72;2.63;;;;;;;;;;5075473;28;20761;-62
2021/08/03 02:08:42;;;;;;;3.67;3.35;;;;;;;;;;5075726;28;20036;-62
2021/08/03 02:11:13;;;;;;;3.58;3.38;;;;;;;;;;5075640;28;20036;-62
2021/08/03 02:13:40;;;;;;;5.03;2.97;;;;;;;;;;5075700;28;20089;-62
2021/08/03 02:16:12;;;;;;;3.50;2.92;;;;;;;;;;5075777;28;20040;-63
2021/08/03 02:18:45;;;;;;;3.15;2.58;;;;;;;;;;5075470;28;20431;-63
2021/08/03 02:21:14;;;;;;;2.67;2.47;;;;;;;;;;5074830;28;20500;-62
2021/08/03 02:23:41;;;;;;;5.88;2.63;;;;;;;;;;5059084;28;20353;-63
2021/08/03 02:26:09;;;;;;;3.28;2.38;;;;;;;;;;5075725;28;20136;-63
2021/08/03 02:28:35;;;;;;;3.10;2.80;;;;;;;;;;5094040;28;20107;-64
2021/08/03 02:31:04;;;;;;;3.13;2.80;;;;;;;;;;5075540;28;20059;-64
2021/08/03 02:33:35;;;;;;;3.17;2.80;;;;;;;;;;5075626;28;20032;-62
2021/08/03 02:36:06;;;;;;;3.00;2.33;;;;;;;;;;5075430;28;20036;-62
2021/08/03 02:38:34;;;;;;;3.03;2.63;;;;;;;;;;5058699;28;20071;-62
2021/08/03 02:41:00;;;;;;;2.35;2.25;;;;;;;;;;5093660;28;20040;-63
2021/08/03 02:43:33;;;;;;;2.63;2.42;;;;;;;;;;5075238;28;20020;-63
2021/08/03 02:46:04;;;;;;;4.63;2.83;;;;;;;;;;5075075;28;20035;-63
2021/08/03 02:48:31;;;;;;;3.22;2.97;;;;;;;;;;5093808;28;20111;-63
2021/08/03 02:50:58;;;;;;;4.00;2.97;;;;;;;;;;5075278;28;20043;-62
2021/08/03 02:53:38;;;;;;;3.20;2.97;;;;;;;;;;5093407;28;20094;-62
2021/08/03 02:56:09;;;;;;;2.95;2.45;;;;;;;;;;5093307;28;20525;-62
2021/08/03 02:58:58;;;;;;;3.60;2.55;;;;;;;;;;5093287;28;20054;-61
2021/08/03 03:01:26;;;;;;;3.78;2.50;;;;;;;;;;5075001;28;20047;-61
2021/08/03 03:03:56;;;;;;;2.22;2.13;;;;;;;;;;5093506;28;20027;-61
2021/08/03 03:06:26;;;;;;;2.63;2.13;;;;;;;;;;5092784;28;20056;-62
2021/08/03 03:08:55;;;;;;;2.92;2.00;;;;;;;;;;5075108;28;20515;-62
2021/08/03 03:11:25;;;;;;;2.38;2.17;;;;;;;;;;5093727;28;20491;-62
2021/08/03 03:13:52;;;;;;;3.78;1.75;;;;;;;;;;5093125;28;20040;-62
2021/08/03 03:16:21;;;;;;;1.95;1.60;;;;;;;;;;5075028;28;20040;-62
2021/08/03 03:18:48;;;;;;;3.50;2.08;;;;;;;;;;5075137;28;20066;-62
2021/08/03 03:21:19;;;;;;;2.10;1.67;;;;;;;;;;5074932;28;20472;-62
2021/08/03 03:23:47;;;;;;;4.38;2.30;;;;;;;;;;5092938;28;20036;-62
2021/08/03 03:26:13;;;;;;;11.25;2.45;;;;;;;;;;5058292;28;20119;-62
2021/08/03 03:28:40;;;;;;;4.63;2.30;;;;;;;;;;5074928;28;20028;-62
2021/08/03 03:31:06;;;;;;;13.98;2.90;;;;;;;;;;5074835;28;20496;-62
2021/08/03 03:33:39;;;;;;;3.15;2.40;;;;;;;;;;5077832;28;20043;-62
2021/08/03 03:36:08;;;;;;;5.05;2.20;;;;;;;;;;5096972;28;20122;-62
2021/08/03 03:38:37;;;;;;;7.28;2.38;;;;;;;;;;5078714;28;20371;-61
2021/08/03 03:41:05;;;;;;;2.45;2.25;;;;;;;;;;5061972;28;20039;-61
2021/08/03 03:43:30;;;;;;;3.42;2.40;;;;;;;;;;5096646;28;20028;-62
2021/08/03 03:46:01;;;;;;;2.47;1.98;;;;;;;;;;5078508;28;20039;-62
2021/08/03 03:48:29;;;;;;;3.15;2.05;;;;;;;;;;5096708;28;20107;-62
2021/08/03 03:50:59;;;;;;;2.60;2.40;;;;;;;;;;5096400;28;20039;-61
2021/08/03 03:53:31;;;;;;;6.25;3.78;;;;;;;;;;5078615;28;20028;-61
2021/08/03 03:56:02;;;;;;;7.20;3.33;;;;;;;;;;5078329;28;20507;-62
2021/08/03 03:58:32;;;;;;;4.05;3.03;;;;;;;;;;5078191;28;20043;-62
2021/08/03 04:00:59;;;;;;;3.83;3.40;;;;;;;;;;5078232;28;20491;-61
2021/08/03 04:03:26;;;;;;;4.28;3.95;;;;;;;;;;5077886;28;20490;-61
2021/08/03 04:05:53;;;;;;;5.10;4.15;;;;;;;;;;5095798;28;20046;-62
2021/08/03 04:08:19;;;;;;;5.07;3.88;;;;;;;;;;5078258;28;20040;-62
2021/08/03 04:10:45;;;;;;;4.20;3.70;;;;;;;;;;5077605;28;20169;-62
2021/08/03 04:13:11;;;;;;;3.28;2.92;;;;;;;;;;5096075;28;20214;-63
2021/08/03 04:15:37;;;;;;;5.85;2.80;;;;;;;;;;5077775;28;20040;-62
2021/08/03 04:18:04;;;;;;;5.22;3.05;;;;;;;;;;5077665;28;20043;-62
2021/08/03 04:20:31;;;;;;;4.82;3.22;;;;;;;;;;5095997;28;20093;-62
2021/08/03 04:22:57;;;;;;;5.47;3.40;;;;;;;;;;5095727;28;20029;-61
2021/08/03 04:25:23;;;;;;;4.90;3.85;;;;;;;;;;5095717;28;20121;-62
2021/08/03 04:27:48;;;;;;;4.35;3.58;;;;;;;;;;5096102;28;20035;-61
2021/08/03 04:30:14;;;;;;;3.35;2.85;;;;;;;;;;5095162;28;20124;-61
2021/08/03 04:32:40;;;;;;;4.15;3.15;;;;;;;;;;5077574;28;20028;-61
2021/08/03 04:35:07;;;;;;;4.85;2.60;;;;;;;;;;5095694;28;20040;-61
2021/08/03 04:41:08;;;;;;;5.40;3.03;;;;;;;;;;5095926;28;20089;-61
2021/08/03 04:47:08;;;;;;;3.60;2.70;;;;;;;;;;5095751;28;20609;-61
2021/08/03 04:53:09;;;;;;;6.32;2.80;;;;;;;;;;5095613;28;20130;-62
2021/08/03 04:59:10;;;;;;;6.30;3.58;;;;;;;;;;5095496;28;20050;-61
2021/08/03 05:05:12;;;;;;;5.53;4.07;;;;;;;;;;5095354;28;20082;-61
2021/08/03 05:14:22;;;;;;;5.47;4.85;;;;;;;;;;5095480;28;20039;-61
2021/08/03 05:20:21;;;;;;;7.28;5.05;;;;;;;;;;5095223;28;20067;-60
2021/08/03 05:26:23;;;;;;;6.25;5.65;;;;;;;;;;5095226;28;20100;-60
2021/08/03 05:32:23;;;;;;;6.18;5.57;;;;;;;;;;5095080;28;20035;-60
2021/08/03 05:38:25;;;;;;;9.10;5.78;;;;;;;;;;5094985;28;20524;-61
2021/08/03 05:48:16;;;;;;;7.32;6.13;;;;;;;;;;5094534;28;20023;-61
2021/08/03 05:54:17;;;;;;;7.35;6.65;;;;;;;;;;5094453;28;20051;-61
2021/08/03 06:00:18;;;;;;;7.68;6.18;;;;;;;;;;5094486;28;20039;-62
2021/08/03 06:06:20;;;;;;;7.88;6.28;;;;;;;;;;5094491;28;20486;-62
2021/08/03 06:16:09;;;;;;;9.35;6.95;;;;;;;;;;5094332;28;20027;-61
2021/08/03 06:22:10;;;;;;;6.28;5.65;;;;;;;;;;5093966;28;20074;-61
2021/08/03 06:28:11;;;;;;;6.72;6.03;;;;;;;;;;5094213;28;20169;-61
2021/08/03 06:34:11;;;;;;;9.05;6.75;;;;;;;;;;5094110;28;20061;-61
2021/08/03 06:40:12;;;;;;;6.10;5.60;;;;;;;;;;5093698;28;20070;-61
2021/08/03 06:46:12;;;;;;;7.75;6.03;;;;;;;;;;5093934;28;20411;-61
2021/08/03 06:52:13;;;;;;;5.85;5.30;;;;;;;;;;5093905;28;20047;-61
2021/08/03 06:58:21;;;;;;;7.93;4.50;;;;;;;;;;5093584;28;20392;-61
2021/08/03 07:04:24;;;;;;;6.53;4.95;;;;;;;;;;5093806;28;20090;-61
2021/08/03 07:10:26;;;;;;;5.57;5.07;;;;;;;;;;5097759;28;20074;-61
2021/08/03 07:19:39;;;;;;;5.32;3.83;;;;;;;;;;5097465;28;20121;-61
2021/08/03 07:25:42;;;;;;;4.25;3.42;;;;;;;;;;5097565;28;20465;-61
2021/08/03 07:31:42;;;;;;;4.82;4.20;;;;;;;;;;5097448;28;20031;-61
2021/08/03 07:37:43;;;;;;;6.93;4.82;;;;;;;;;;5097111;28;20482;-61
2021/08/03 07:43:43;;;;;;;4.50;3.97;;;;;;;;;;5097230;28;20031;-61
2021/08/03 07:49:46;;;;;;;7.00;3.38;;;;;;;;;;5097120;28;20543;-61
2021/08/03 07:55:47;;;;;;;4.72;4.30;;;;;;;;;;5096768;28;20035;-62
2021/08/03 08:01:47;;;;;;;7.07;4.13;;;;;;;;;;5096633;28;20174;-61
2021/08/03 08:07:47;;;;;;;6.70;4.82;;;;;;;;;;5096815;28;20108;-61
2021/08/03 08:13:48;;;;;;;6.97;5.25;;;;;;;;;;5096701;28;20089;-61
2021/08/03 08:19:49;;;;;;;5.93;3.97;;;;;;;;;;5094603;28;20105;-61
2021/08/03 08:22:14;;;;;;;5.57;4.38;;;;;;;;;;5096054;28;20040;-61
2021/08/03 08:24:40;;;;;;;7.05;4.55;;;;;;;;;;5095820;28;20054;-61
2021/08/03 08:27:06;;;;;;;6.63;4.30;;;;;;;;;;5077863;28;20122;-61
2021/08/03 08:29:31;;;;;;;8.68;4.82;;;;;;;;;;5096062;28;20093;-61
2021/08/03 08:35:33;;;;;;;6.03;4.30;;;;;;;;;;5095996;28;20145;-61
2021/08/03 08:41:34;;;;;;;4.10;3.67;;;;;;;;;;5095886;28;20035;-61
2021/08/03 08:47:35;;;;;;;3.97;3.63;;;;;;;;;;5096010;28;20078;-61
2021/08/03 08:53:36;;;;;;;4.68;3.20;;;;;;;;;;5096167;28;20031;-61
2021/08/03 08:56:02;;;;;;;3.17;2.63;;;;;;;;;;5077123;28;20124;-61
2021/08/03 08:58:30;;;;;;;2.65;2.50;;;;;;;;;;5095041;28;20039;-61
2021/08/03 09:00:56;;;;;;;2.30;2.20;;;;;;;;;;5095134;28;20473;-61
2021/08/03 09:03:21;;;;;;;2.80;2.60;;;;;;;;;;5095346;28;20032;-61
2021/08/03 09:05:56;;;;;;;2.78;2.50;;;;;;;;;;5095280;28;20376;-61
2021/08/03 09:08:26;;;;;;;2.83;2.63;;;;;;;;;;5094946;28;20081;-61
2021/08/03 09:10:51;;;;;;;3.92;2.25;;;;;;;;;;5095134;28;20459;-61
2021/08/03 09:13:23;;;;;;;2.55;2.35;;;;;;;;;;5094899;28;20062;-61
2021/08/03 09:15:59;;;;;;;2.40;2.20;;;;;;;;;;5095011;28;20036;-61
2021/08/03 09:18:28;;;;;;;2.47;2.20;;;;;;;;;;5092840;28;20036;-62
2021/08/03 09:20:53;;;;;;;2.33;2.13;;;;;;;;;;5093032;28;20042;-61
2021/08/03 09:23:19;;;;;;;2.45;2.25;;;;;;;;;;5092545;28;20391;-61
2021/08/03 09:29:41;;;;;;;2.05;1.90;;;;;;;;;;5095215;28;20128;-61
2021/08/03 09:35:44;;;;;;;2.20;2.00;;;;;;;;;;5094815;28;20030;-61
2021/08/03 09:41:46;;;;;;;2.20;2.00;;;;;;;;;;5094704;28;20039;-61
2021/08/03 09:47:46;;;;;;;1.77;1.67;;;;;;;;;;5094906;28;20035;-61
2021/08/03 09:53:52;;;;;;;2.75;1.90;;;;;;;;;;5094765;28;20058;-61
2021/08/03 09:59:53;;;;;;;2.22;1.70;;;;;;;;;;5094680;28;20058;-61
2021/08/03 10:05:54;;;;;;;1.63;1.52;;;;;;;;;;5094593;28;20120;-61
2021/08/03 10:15:31;;;;;;;2.33;1.70;;;;;;;;;;5094490;28;20403;-61
2021/08/03 10:17:56;;;;;;;2.13;1.90;;;;;;;;;;5093597;28;20036;-61
2021/08/03 10:20:22;;;;;;;1.83;1.73;;;;;;;;;;5093235;28;20044;-61
2021/08/03 10:22:53;;;;;;;1.90;1.80;;;;;;;;;;5093974;28;20093;-61
2021/08/03 10:25:20;;;;;;;1.90;1.80;;;;;;;;;;5093485;28;20040;-61
2021/08/03 10:27:45;;;;;;;1.77;1.67;;;;;;;;;;5093394;28;20028;-61
2021/08/03 10:30:26;;;;;;;2.72;1.58;;;;;;;;;;5093956;28;20491;-61
2021/08/03 10:32:53;;;;;;;1.80;1.70;;;;;;;;;;5093888;28;20044;-61
2021/08/03 10:35:19;;;;;;;2.00;1.55;;;;;;;;;;5093580;28;20482;-61
2021/08/03 10:37:57;;;;;;;1.55;1.45;;;;;;;;;;5093414;28;20033;-61
2021/08/03 10:40:41;;;;;;;1.40;1.30;;;;;;;;;;5093158;28;20036;-61
2021/08/03 10:43:14;;;;;;;1.55;1.45;;;;;;;;;;5092631;28;20396;-61
2021/08/03 10:45:40;;;;;;;1.50;1.40;;;;;;;;;;5093334;28;20036;-61
2021/08/03 10:48:06;;;;;;;2.60;1.40;;;;;;;;;;5075266;28;20078;-61
2021/08/03 10:50:32;;;;;;;1.67;1.58;;;;;;;;;;5093452;28;20055;-61
2021/08/03 10:53:03;;;;;;;1.73;1.63;;;;;;;;;;5093596;28;20048;-61
2021/08/03 10:55:42;;;;;;;1.70;1.60;;;;;;;;;;5093216;28;20082;-61
2021/08/03 10:58:08;;;;;;;1.48;1.38;;;;;;;;;;5093332;28;20038;-61
2021/08/03 11:01:02;;;;;;;1.40;1.30;;;;;;;;;;5093474;28;20032;-61
2021/08/03 11:03:34;;;;;;;1.77;1.67;;;;;;;;;;5091659;28;20060;-62
2021/08/03 11:05:59;;;;;;;2.83;1.52;;;;;;;;;;5093382;28;20036;-61
2021/08/03 11:08:44;;;;;;;1.70;1.60;;;;;;;;;;5092483;28;20430;-61
2021/08/03 11:11:09;;;;;;;1.42;1.33;;;;;;;;;;5093059;28;20036;-61
2021/08/03 11:13:41;;;;;;;1.30;1.20;;;;;;;;;;5093126;28;20081;-62
2021/08/03 11:16:30;;;;;;;1.70;1.60;;;;;;;;;;5093078;28;20038;-61
2021/08/03 11:18:57;;;;;;;1.40;1.30;;;;;;;;;;5092363;28;20101;-62
2021/08/03 11:21:23;;;;;;;2.28;1.55;;;;;;;;;;5075070;28;20047;-61
2021/08/03 11:23:58;;;;;;;1.60;1.50;;;;;;;;;;5093135;28;20387;-61
2021/08/03 11:26:25;;;;;;;1.60;1.50;;;;;;;;;;5093076;28;20488;-60
2021/08/03 11:28:56;;;;;;;1.80;1.70;;;;;;;;;;5093086;28;20024;-61
2021/08/03 11:31:21;;;;;;;2.33;1.88;;;;;;;;;;5092766;28;20434;-61
2021/08/03 11:33:53;;;;;;;1.73;1.63;;;;;;;;;;5092952;28;20024;-61
2021/08/03 11:36:19;;;;;;;1.77;1.67;;;;;;;;;;5092907;28;20082;-61
2021/08/03 11:38:44;;;;;;;1.80;1.70;;;;;;;;;;5074705;28;20503;-61
2021/08/03 11:41:10;;;;;;;2.03;1.75;;;;;;;;;;5093110;28;20059;-61
2021/08/03 11:43:35;;;;;;;1.70;1.35;;;;;;;;;;5092743;28;20487;-61
2021/08/03 11:46:00;;;;;;;1.80;1.70;;;;;;;;;;5074486;28;20488;-62
2021/08/03 11:48:28;;;;;;;1.40;1.40;;;;;;;;;;5074719;28;20067;-62
2021/08/03 11:50:54;;;;;;;2.40;1.60;;;;;;;;;;5074844;28;20036;-62
2021/08/03 11:53:23;;;;;;;1.92;1.40;;;;;;;;;;5093417;28;20134;-62
2021/08/03 11:55:50;;;;;;;1.40;1.40;;;;;;;;;;5096416;28;20059;-62
2021/08/03 11:58:22;;;;;;;1.73;1.60;;;;;;;;;;5078197;28;20035;-61
2021/08/03 12:00:52;;;;;;;1.38;1.27;;;;;;;;;;5095679;28;20047;-61
2021/08/03 12:03:26;;;;;;;1.55;1.45;;;;;;;;;;5096320;28;20387;-61
2021/08/03 12:05:52;;;;;;;1.48;1.40;;;;;;;;;;5078274;28;20089;-62
2021/08/03 12:08:18;;;;;;;1.50;1.40;;;;;;;;;;5096081;28;20463;-61
2021/08/03 12:10:46;;;;;;;1.52;1.38;;;;;;;;;;5095946;28;20047;-61
2021/08/03 12:13:24;;;;;;;1.60;1.50;;;;;;;;;;5096218;28;20069;-62
2021/08/03 12:15:51;;;;;;;2.03;1.70;;;;;;;;;;5096156;28;20111;-61
2021/08/03 12:18:17;;;;;;;1.33;1.33;;;;;;;;;;5095577;28;20039;-62
2021/08/03 12:20:49;;;;;;;2.63;1.30;;;;;;;;;;5095944;28;20364;-61
2021/08/03 12:23:15;;;;;;;1.80;1.70;;;;;;;;;;5096021;28;20093;-61
2021/08/03 12:25:45;;;;;;;1.73;1.30;;;;;;;;;;5095668;28;20032;-61
2021/08/03 12:28:12;;;;;;;1.30;1.20;;;;;;;;;;5077656;28;20073;-61
2021/08/03 12:30:38;;;;;;;1.63;1.50;;;;;;;;;;5095987;28;20031;-61
2021/08/03 12:33:05;;;;;;;1.65;1.55;;;;;;;;;;5095756;28;20036;-61
2021/08/03 12:35:31;;;;;;;1.52;1.40;;;;;;;;;;5095522;28;20032;-62
2021/08/03 12:38:18;;;;;;;1.90;1.10;;;;;;;;;;5095518;28;20091;-61
2021/08/03 12:40:44;;;;;;;1.02;1.02;;;;;;;;;;5095613;28;20048;-61
2021/08/03 12:43:09;;;;;;;1.10;1.10;;;;;;;;;;5077683;28;20111;-61
2021/08/03 12:45:42;;;;;;;1.52;1.42;;;;;;;;;;5095411;28;20039;-62
2021/08/03 12:48:14;;;;;;;2.45;1.27;;;;;;;;;;5077092;28;20484;-61
2021/08/03 12:50:50;;;;;;;1.33;1.23;;;;;;;;;;5077214;28;20042;-61
2021/08/03 12:53:24;;;;;;;1.38;1.30;;;;;;;;;;5095098;28;20093;-61
2021/08/03 12:55:55;;;;;;;1.45;1.35;;;;;;;;;;5094975;28;20403;-61
2021/08/03 12:58:35;;;;;;;1.33;1.23;;;;;;;;;;5095217;28;20098;-61
2021/08/03 13:01:10;;;;;;;1.30;1.30;;;;;;;;;;5095141;28;20072;-61
2021/08/03 13:03:36;;;;;;;1.35;1.08;;;;;;;;;;5095040;28;20036;-61
2021/08/03 13:06:03;;;;;;;1.27;1.17;;;;;;;;;;5094607;28;20024;-61
2021/08/03 13:12:05;;;;;;;1.30;1.02;;;;;;;;;;5095536;28;20399;-61
2021/08/03 13:18:06;;;;;;;1.48;1.38;;;;;;;;;;5095442;28;20506;-61
2021/08/03 13:24:20;;;;;;;1.40;1.30;;;;;;;;;;5095076;28;20125;-61
2021/08/03 13:30:21;;;;;;;1.40;1.30;;;;;;;;;;5094972;28;20088;-61
2021/08/03 13:36:21;;;;;;;1.40;1.30;;;;;;;;;;5095082;28;20042;-61
2021/08/03 13:42:23;;;;;;;1.30;1.20;;;;;;;;;;5094717;28;20035;-61
2021/08/03 13:48:23;;;;;;;1.38;1.27;;;;;;;;;;5094915;28;20209;-61
2021/08/03 13:54:24;;;;;;;1.50;1.38;;;;;;;;;;5094535;28;20019;-61
2021/08/03 14:00:25;;;;;;;1.50;1.40;;;;;;;;;;5094578;28;20039;-61
2021/08/03 14:06:26;;;;;;;1.63;1.17;;;;;;;;;;5094580;28;20514;-61
2021/08/03 14:12:27;;;;;;;1.95;1.48;;;;;;;;;;5094493;28;20059;-63
2021/08/03 14:22:03;;;;;;;2.58;1.30;;;;;;;;;;5090806;28;20442;-61
2021/08/03 14:24:28;;;;;;;1.42;1.33;;;;;;;;;;5089316;28;20031;-61
2021/08/03 14:26:54;;;;;;;1.63;1.42;;;;;;;;;;5072267;28;20036;-61
2021/08/03 14:29:19;;;;;;;1.70;1.60;;;;;;;;;;5090238;28;20061;-61
2021/08/03 14:31:45;;;;;;;2.17;1.80;;;;;;;;;;5090191;28;20027;-62
2021/08/03 14:34:11;;;;;;;1.70;1.60;;;;;;;;;;5089941;28;20047;-61
2021/08/03 14:36:36;;;;;;;1.63;1.52;;;;;;;;;;5090118;28;20039;-62
2021/08/03 14:39:02;;;;;;;1.60;1.48;;;;;;;;;;5090087;28;20032;-62
2021/08/03 14:41:27;;;;;;;1.80;1.65;;;;;;;;;;5089719;28;20059;-62
2021/08/03 14:43:54;;;;;;;2.13;1.90;;;;;;;;;;5090113;28;20040;-62
2021/08/03 14:46:20;;;;;;;2.38;2.22;;;;;;;;;;5090081;28;20050;-62
2021/08/03 14:48:46;;;;;;;3.60;2.17;;;;;;;;;;5090070;28;20028;-62
2021/08/03 14:51:11;;;;;;;3.05;2.75;;;;;;;;;;5090083;28;20060;-61
2021/08/03 14:53:38;;;;;;;2.80;2.17;;;;;;;;;;5090067;28;20044;-63
2021/08/03 14:56:04;;;;;;;2.40;2.20;;;;;;;;;;5071619;28;20040;-61
2021/08/03 14:58:30;;;;;;;2.75;2.15;;;;;;;;;;5071520;28;20439;-61
2021/08/03 15:00:55;;;;;;;2.17;1.95;;;;;;;;;;5089423;28;20061;-61
2021/08/03 15:03:21;;;;;;;2.15;1.92;;;;;;;;;;5071445;28;20038;-61
2021/08/03 15:05:47;;;;;;;2.13;1.88;;;;;;;;;;5089860;28;20758;-61
2021/08/03 15:08:13;;;;;;;1.92;1.80;;;;;;;;;;5071557;28;20162;-61
2021/08/03 15:10:38;;;;;;;2.00;1.65;;;;;;;;;;5089714;28;20043;-61
2021/08/03 15:13:04;;;;;;;2.08;1.88;;;;;;;;;;5089904;28;20426;-61
2021/08/03 15:15:29;;;;;;;2.75;1.88;;;;;;;;;;5071432;28;20032;-61
2021/08/03 15:17:55;;;;;;;1.98;1.80;;;;;;;;;;5071543;28;20039;-61
2021/08/03 15:20:20;;;;;;;1.77;1.67;;;;;;;;;;5070529;28;20072;-61
2021/08/03 15:22:46;;;;;;;3.53;1.85;;;;;;;;;;5089657;28;20101;-62
2021/08/03 15:25:11;;;;;;;2.75;2.03;;;;;;;;;;5089820;28;20032;-62
2021/08/03 15:27:37;;;;;;;4.53;2.00;;;;;;;;;;5089648;28;20040;-62
2021/08/03 15:30:03;;;;;;;2.10;1.98;;;;;;;;;;5093356;28;20031;-62
2021/08/03 15:32:28;;;;;;;3.42;1.67;;;;;;;;;;5093701;28;20040;-62
2021/08/03 15:34:54;;;;;;;3.33;1.75;;;;;;;;;;5075263;28;20517;-62
2021/08/03 15:37:20;;;;;;;2.50;1.70;;;;;;;;;;5075236;28;20044;-61
2021/08/03 15:39:46;;;;;;;1.85;1.75;;;;;;;;;;5074866;28;20067;-62
2021/08/03 15:42:11;;;;;;;5.53;2.20;;;;;;;;;;5093195;28;20083;-62
2021/08/03 15:44:37;;;;;;;3.03;2.03;;;;;;;;;;5074250;28;20024;-62
2021/08/03 15:47:03;;;;;;;1.95;1.73;;;;;;;;;;5093262;28;20092;-62
2021/08/03 15:49:28;;;;;;;2.20;2.00;;;;;;;;;;5093251;28;20024;-62
2021/08/03 15:51:54;;;;;;;3.40;2.35;;;;;;;;;;5092820;28;20047;-62
2021/08/03 15:54:19;;;;;;;2.97;2.13;;;;;;;;;;5092599;28;20036;-61
2021/08/03 15:56:45;;;;;;;2.30;2.10;;;;;;;;;;5093058;28;20089;-62
2021/08/03 15:59:10;;;;;;;2.05;1.90;;;;;;;;;;5093196;28;20523;-62
2021/08/03 16:01:36;;;;;;;3.33;2.13;;;;;;;;;;5092539;28;20527;-61
2021/08/03 16:04:01;;;;;;;2.30;2.10;;;;;;;;;;5092662;28;20043;-61
2021/08/03 16:06:27;;;;;;;2.13;1.90;;;;;;;;;;5092794;28;20028;-61
2021/08/03 16:08:52;;;;;;;2.30;1.80;;;;;;;;;;5092721;28;20024;-61
2021/08/03 16:11:18;;;;;;;3.33;1.98;;;;;;;;;;5092866;28;20454;-61
2021/08/03 16:13:43;;;;;;;3.58;2.60;;;;;;;;;;5092011;28;20028;-61
2021/08/03 16:16:09;;;;;;;3.33;2.95;;;;;;;;;;5074573;28;20064;-61
2021/08/03 16:18:42;;;;;;;3.95;2.90;;;;;;;;;;5092312;28;20056;-61
2021/08/03 16:21:08;;;;;;;3.92;2.83;;;;;;;;;;5092744;28;20044;-61
2021/08/03 16:23:34;;;;;;;2.65;2.45;;;;;;;;;;5092810;28;20038;-61
2021/08/03 16:25:59;;;;;;;2.53;2.20;;;;;;;;;;5092652;28;20193;-61
2021/08/03 16:28:25;;;;;;;2.10;2.00;;;;;;;;;;5092840;28;20043;-61
2021/08/03 16:30:51;;;;;;;2.00;1.88;;;;;;;;;;5092297;28;20609;-61
2021/08/03 16:33:20;;;;;;;2.05;1.90;;;;;;;;;;5074276;28;20429;-61
2021/08/03 16:35:45;;;;;;;2.55;1.95;;;;;;;;;;5092486;28;20075;-61
2021/08/03 16:38:13;;;;;;;6.53;2.58;;;;;;;;;;5092540;28;20071;-61
2021/08/03 16:40:39;;;;;;;7.07;2.53;;;;;;;;;;5091089;28;20589;-61
2021/08/03 16:43:05;;;;;;;1.85;1.58;;;;;;;;;;5092130;28;20031;-61
2021/08/03 16:45:30;;;;;;;2.72;1.60;;;;;;;;;;5092331;28;20115;-60
2021/08/03 16:47:57;;;;;;;9.65;3.25;;;;;;;;;;5092395;28;20028;-60
2021/08/03 16:50:23;;;;;;;6.80;2.90;;;;;;;;;;5092066;28;20040;-60
2021/08/03 16:52:48;;;;;;;2.40;2.20;;;;;;;;;;5092087;28;20073;-61
2021/08/03 16:55:14;;;;;;;2.95;2.08;;;;;;;;;;5092166;28;20452;-60
2021/08/03 16:57:40;;;;;;;2.38;2.17;;;;;;;;;;5091930;28;20032;-61
2021/08/03 17:00:07;;;;;;;2.35;1.75;;;;;;;;;;5091748;28;20833;-61
2021/08/03 17:02:36;;;;;;;1.73;1.63;;;;;;;;;;5091725;28;20036;-60
2021/08/03 17:05:04;;;;;;;4.57;1.90;;;;;;;;;;5091889;28;20119;-60
2021/08/03 17:07:29;;;;;;;2.58;1.75;;;;;;;;;;5091371;28;20035;-61
2021/08/03 17:10:01;;;;;;;2.33;2.03;;;;;;;;;;5091840;28;20036;-60
2021/08/03 17:12:42;;;;;;;2.60;2.00;;;;;;;;;;5091586;28;20492;-61
2021/08/03 17:15:07;;;;;;;1.80;1.70;;;;;;;;;;5073212;28;20035;-60
2021/08/03 17:17:37;;;;;;;2.20;2.10;;;;;;;;;;5091607;28;20503;-60
2021/08/03 17:20:07;;;;;;;2.20;2.00;;;;;;;;;;5091475;28;20431;-60
2021/08/03 17:22:34;;;;;;;4.68;3.35;;;;;;;;;;5091512;28;20044;-60
2021/08/03 17:25:01;;;;;;;4.60;3.95;;;;;;;;;;5091553;28;20078;-60
2021/08/03 17:27:28;;;;;;;9.77;6.38;;;;;;;;;;5091576;28;20072;-60
2021/08/03 17:29:56;;;;;;;6.28;4.47;;;;;;;;;;5091465;28;20044;-60
2021/08/03 17:32:22;;;;;;;11.15;6.53;;;;;;;;;;5091284;28;20540;-61
2021/08/03 17:34:47;;;;;;;8.68;5.78;;;;;;;;;;5091368;28;20036;-60
2021/08/03 17:37:13;;;;;;;7.93;5.25;;;;;;;;;;5091233;28;20040;-60
2021/08/03 17:39:40;;;;;;;8.35;6.05;;;;;;;;;;5072801;28;20034;-60
2021/08/03 17:42:08;;;;;;;8.27;5.85;;;;;;;;;;5090874;28;20089;-60
2021/08/03 17:44:33;;;;;;;4.90;4.00;;;;;;;;;;5091067;28;20096;-60
2021/08/03 17:46:59;;;;;;;3.83;2.88;;;;;;;;;;5091105;28;20119;-60
2021/08/03 17:49:25;;;;;;;6.00;4.80;;;;;;;;;;5091120;28;20673;-61
2021/08/03 17:51:52;;;;;;;5.18;4.78;;;;;;;;;;5090744;28;20048;-60
2021/08/03 17:54:19;;;;;;;4.85;4.38;;;;;;;;;;5090838;28;20081;-60
2021/08/03 17:56:44;;;;;;;3.78;3.42;;;;;;;;;;5091012;28;20043;-60
2021/08/03 17:59:10;;;;;;;3.70;3.05;;;;;;;;;;5072401;28;20032;-60
2021/08/03 18:01:41;;;;;;;2.72;2.33;;;;;;;;;;5090755;28;20097;-60
2021/08/03 18:04:07;;;;;;;3.00;2.38;;;;;;;;;;5090681;28;20078;-60
2021/08/03 18:06:33;;;;;;;3.90;2.05;;;;;;;;;;5090340;28;20024;-60
2021/08/03 18:08:58;;;;;;;3.10;2.50;;;;;;;;;;5090498;28;20032;-60
2021/08/03 18:11:26;;;;;;;2.58;2.28;;;;;;;;;;5090270;28;20040;-60
2021/08/03 18:13:53;;;;;;;2.35;2.13;;;;;;;;;;5072158;28;20471;-60
2021/08/03 18:16:19;;;;;;;2.70;2.50;;;;;;;;;;5090502;28;20032;-60
2021/08/03 18:18:51;;;;;;;2.30;2.20;;;;;;;;;;5090049;28;20044;-61
2021/08/03 18:21:17;;;;;;;3.22;2.65;;;;;;;;;;5056210;28;20040;-60
2021/08/03 18:23:43;;;;;;;2.38;2.28;;;;;;;;;;5093740;28;20032;-61
2021/08/03 18:26:12;;;;;;;2.45;2.35;;;;;;;;;;5093561;28;20036;-61
2021/08/03 18:28:42;;;;;;;2.53;2.33;;;;;;;;;;5093187;28;20116;-61
2021/08/03 18:31:26;;;;;;;3.13;2.83;;;;;;;;;;5093815;28;20068;-61
2021/08/03 18:33:59;;;;;;;7.82;5.55;;;;;;;;;;5093606;28;20476;-61
2021/08/03 18:36:25;;;;;;;7.93;6.45;;;;;;;;;;5093756;28;20040;-61
2021/08/03 18:38:52;;;;;;;5.70;5.07;;;;;;;;;;5093626;28;20035;-61
2021/08/03 18:41:19;;;;;;;5.18;4.00;;;;;;;;;;5093334;28;20127;-61